createdAt,value
2022-08-18T00:00:02.905Z,18.48
2022-08-18T00:01:09.743Z,18.13
2022-08-18T00:02:16.834Z,13.82
2022-08-18T00:03:56.673Z,14.02
2022-08-18T00:05:00.807Z,14.18
2022-08-18T00:06:07.151Z,12.43
2022-08-18T00:07:15.255Z,12.52
2022-08-18T00:08:20.746Z,13.35
2022-08-18T00:09:28.991Z,14.38
2022-08-18T00:10:36.338Z,15.18
2022-08-18T00:11:44.667Z,17.73
2022-08-18T00:12:48.591Z,18.73
2022-08-18T00:13:54.305Z,18.02
2022-08-18T00:15:02.538Z,18.50
2022-08-18T00:16:07.932Z,16.60
2022-08-18T00:17:12.188Z,15.05
2022-08-18T00:18:18.223Z,16.08
2022-08-18T00:19:45.746Z,16.23
2022-08-18T00:20:49.262Z,17.05
2022-08-18T00:21:53.264Z,16.13
2022-08-18T00:22:59.069Z,16.10
2022-08-18T00:24:05.768Z,15.15
2022-08-18T00:25:12.769Z,15.25
2022-08-18T00:26:16.487Z,16.73
2022-08-18T00:27:28.573Z,14.63
2022-08-18T00:28:32.654Z,13.43
2022-08-18T00:29:37.766Z,13.57
2022-08-18T00:30:41.972Z,13.93
2022-08-18T00:31:47.332Z,13.35
2022-08-18T00:32:53.605Z,13.10
2022-08-18T00:33:59.268Z,13.60
2022-08-18T00:35:08.128Z,12.65
2022-08-18T00:36:14.170Z,12.73
2022-08-18T00:37:18.225Z,12.70
2022-08-18T00:38:24.466Z,13.48
2022-08-18T00:39:35.041Z,14.13
2022-08-18T00:40:46.182Z,14.40
2022-08-18T00:41:50.368Z,14.55
2022-08-18T00:42:57.258Z,16.13
2022-08-18T00:44:01.673Z,15.07
2022-08-18T00:45:08.598Z,14.68
2022-08-18T00:46:16.692Z,14.50
2022-08-18T00:47:41.932Z,14.75
2022-08-18T00:48:49.385Z,14.07
2022-08-18T00:49:54.526Z,12.75
2022-08-18T00:51:01.267Z,16.98
2022-08-18T00:52:06.376Z,17.05
2022-08-18T00:53:19.019Z,13.25
2022-08-18T00:54:26.190Z,14.98
2022-08-18T00:55:34.793Z,13.45
2022-08-18T00:56:43.194Z,13.02
2022-08-18T00:57:49.680Z,14.40
2022-08-18T00:58:58.237Z,14.13
2022-08-18T01:00:12.152Z,16.30
2022-08-18T01:01:33.683Z,17.00
2022-08-18T01:02:41.119Z,16.52
2022-08-18T01:03:53.340Z,17.40
2022-08-18T01:05:03.107Z,16.45
2022-08-18T01:06:11.935Z,16.58
2022-08-18T01:07:20.784Z,15.48
2022-08-18T01:08:28.490Z,15.35
2022-08-18T01:09:34.361Z,17.45
2022-08-18T01:10:42.627Z,17.23
2022-08-18T01:11:47.861Z,18.48
2022-08-18T01:12:56.706Z,17.10
2022-08-18T01:14:01.280Z,17.05
2022-08-18T01:15:07.896Z,18.70
2022-08-18T01:16:56.930Z,17.42
2022-08-18T01:18:22.780Z,17.48
2022-08-18T01:19:55.174Z,16.63
2022-08-18T01:21:26.969Z,15.30
2022-08-18T01:22:35.762Z,14.07
2022-08-18T01:23:41.658Z,14.88
2022-08-18T01:25:03.890Z,16.75
2022-08-18T01:26:10.017Z,15.70
2022-08-18T01:27:18.423Z,13.60
2022-08-18T01:28:24.788Z,12.70
2022-08-18T01:29:30.398Z,18.08
2022-08-18T01:30:47.493Z,20.02
2022-08-18T01:31:56.689Z,16.73
2022-08-18T01:33:03.920Z,16.08
2022-08-18T01:34:10.418Z,14.65
2022-08-18T01:35:17.644Z,15.95
2022-08-18T01:36:23.482Z,14.73
2022-08-18T01:37:29.079Z,15.00
2022-08-18T01:38:33.258Z,14.45
2022-08-18T01:41:22.377Z,12.55
2022-08-18T01:41:26.676Z,11.13
2022-08-18T01:42:29.450Z,14.50
2022-08-18T01:43:35.327Z,13.70
2022-08-18T01:44:41.990Z,13.07
2022-08-18T01:45:47.900Z,13.93
2022-08-18T01:46:53.944Z,12.38
2022-08-18T01:48:00.081Z,12.80
2022-08-18T01:49:04.497Z,13.10
2022-08-18T01:50:11.413Z,12.77
2022-08-18T01:51:16.286Z,13.77
2022-08-18T01:52:23.258Z,15.75
2022-08-18T01:53:27.667Z,15.95
2022-08-18T01:54:33.143Z,16.30
2022-08-18T01:55:41.425Z,17.30
2022-08-18T01:56:48.816Z,15.18
2022-08-18T01:57:53.114Z,16.67
2022-08-18T01:58:58.696Z,13.63
2022-08-18T02:00:03.151Z,13.55
2022-08-18T02:01:17.450Z,13.05
2022-08-18T02:02:25.154Z,13.85
2022-08-18T02:03:32.899Z,13.32
2022-08-18T02:04:37.734Z,11.70
2022-08-18T02:05:46.369Z,12.13
2022-08-18T02:06:51.923Z,10.60
2022-08-18T02:07:57.413Z,11.00
2022-08-18T02:09:01.579Z,12.65
2022-08-18T02:10:08.038Z,13.00
2022-08-18T02:11:17.831Z,12.38
2022-08-18T02:12:24.365Z,14.15
2022-08-18T02:13:28.771Z,14.02
2022-08-18T02:14:33.831Z,14.70
2022-08-18T02:15:37.566Z,14.75
2022-08-18T02:16:46.768Z,14.30
2022-08-18T02:17:50.958Z,17.75
2022-08-18T02:18:56.767Z,14.88
2022-08-18T02:20:00.937Z,11.52
2022-08-18T02:21:11.997Z,11.32
2022-08-18T02:22:20.306Z,11.05
2022-08-18T02:23:26.768Z,12.00
2022-08-18T02:24:31.789Z,10.45
2022-08-18T02:25:36.791Z,13.75
2022-08-18T02:26:43.961Z,13.55
2022-08-18T02:27:49.240Z,15.93
2022-08-18T02:28:53.845Z,14.07
2022-08-18T02:30:02.993Z,18.25
2022-08-18T02:31:08.640Z,14.77
2022-08-18T02:32:16.720Z,14.10
2022-08-18T02:33:20.486Z,14.38
2022-08-18T02:34:25.971Z,14.38
2022-08-18T02:35:30.489Z,15.15
2022-08-18T02:36:35.724Z,15.18
2022-08-18T02:37:42.262Z,14.55
2022-08-18T02:39:00.225Z,15.93
2022-08-18T02:40:05.227Z,15.75
2022-08-18T02:41:11.869Z,16.67
2022-08-18T02:42:16.869Z,16.30
2022-08-18T02:43:21.352Z,15.38
2022-08-18T02:44:24.714Z,16.40
2022-08-18T02:45:29.242Z,16.92
2022-08-18T02:46:32.596Z,14.18
2022-08-18T02:47:37.043Z,15.57
2022-08-18T02:48:40.389Z,15.88
2022-08-18T02:49:44.710Z,14.88
2022-08-18T02:50:48.131Z,14.48
2022-08-18T02:51:53.022Z,11.40
2022-08-18T02:52:56.405Z,12.93
2022-08-18T02:54:00.934Z,13.45
2022-08-18T02:55:04.907Z,14.50
2022-08-18T02:56:40.263Z,14.30
2022-08-18T02:57:49.708Z,14.10
2022-08-18T02:58:54.961Z,14.88
2022-08-18T02:59:59.771Z,14.30
2022-08-18T03:01:03.074Z,13.20
2022-08-18T03:02:08.603Z,14.38
2022-08-18T03:03:11.968Z,14.93
2022-08-18T03:04:22.925Z,14.93
2022-08-18T03:05:30.424Z,16.00
2022-08-18T03:06:38.324Z,15.13
2022-08-18T03:07:41.602Z,15.50
2022-08-18T03:08:49.079Z,15.88
2022-08-18T03:09:53.312Z,15.68
2022-08-18T03:10:56.507Z,15.65
2022-08-18T03:12:01.274Z,16.30
2022-08-18T03:13:06.278Z,15.80
2022-08-18T03:14:11.430Z,16.25
2022-08-18T03:15:15.009Z,14.82
2022-08-18T03:16:19.853Z,15.80
2022-08-18T03:17:23.324Z,14.85
2022-08-18T03:18:27.651Z,15.98
2022-08-18T03:19:30.948Z,16.15
2022-08-18T03:20:35.410Z,15.82
2022-08-18T03:21:38.862Z,16.63
2022-08-18T03:22:44.109Z,15.60
2022-08-18T03:24:00.907Z,15.70
2022-08-18T03:25:06.767Z,15.60
2022-08-18T03:26:11.951Z,16.40
2022-08-18T03:27:16.179Z,16.00
2022-08-18T03:28:21.074Z,17.17
2022-08-18T03:29:29.533Z,15.45
2022-08-18T03:30:35.410Z,14.40
2022-08-18T03:31:40.508Z,12.98
2022-08-18T03:32:45.659Z,15.10
2022-08-18T03:33:50.501Z,13.48
2022-08-18T03:34:53.719Z,15.75
2022-08-18T03:35:57.991Z,15.45
2022-08-18T03:37:02.329Z,17.42
2022-08-18T03:38:06.159Z,18.88
2022-08-18T03:39:12.354Z,19.08
2022-08-18T03:40:15.587Z,17.63
2022-08-18T03:41:44.495Z,17.92
2022-08-18T03:42:47.568Z,18.45
2022-08-18T03:43:52.851Z,17.33
2022-08-18T03:44:57.178Z,17.83
2022-08-18T03:46:01.879Z,18.45
2022-08-18T03:47:09.493Z,17.75
2022-08-18T03:48:12.783Z,18.77
2022-08-18T03:49:18.321Z,18.23
2022-08-18T03:50:26.083Z,18.40
2022-08-18T03:51:32.390Z,20.58
2022-08-18T03:52:41.644Z,21.85
2022-08-18T03:53:45.480Z,19.98
2022-08-18T03:54:49.623Z,23.10
2022-08-18T03:55:52.631Z,22.33
2022-08-18T03:56:56.819Z,22.23
2022-08-18T03:58:03.032Z,21.80
2022-08-18T03:59:10.101Z,22.33
2022-08-18T04:00:13.558Z,19.85
2022-08-18T04:01:26.341Z,18.42
2022-08-18T04:02:30.525Z,18.50
2022-08-18T04:03:34.752Z,18.80
2022-08-18T04:04:42.910Z,18.42
2022-08-18T04:05:47.889Z,19.25
2022-08-18T04:06:55.611Z,19.58
2022-08-18T04:07:59.170Z,20.60
2022-08-18T04:09:06.372Z,18.52
2022-08-18T04:10:17.027Z,19.73
2022-08-18T04:11:23.970Z,20.15
2022-08-18T04:12:27.230Z,19.48
2022-08-18T04:13:36.445Z,20.80
2022-08-18T04:14:42.369Z,18.85
2022-08-18T04:15:46.459Z,19.77
2022-08-18T04:16:49.850Z,19.23
2022-08-18T04:18:06.012Z,19.77
2022-08-18T04:19:09.895Z,19.77
2022-08-18T04:20:14.978Z,18.42
2022-08-18T04:21:18.705Z,22.67
2022-08-18T04:22:22.961Z,22.42
2022-08-18T04:23:26.229Z,22.23
2022-08-18T04:24:33.017Z,21.75
2022-08-18T04:25:36.534Z,20.83
2022-08-18T04:26:43.401Z,19.60
2022-08-18T04:27:46.600Z,21.63
2022-08-18T04:28:50.770Z,21.67
2022-08-18T04:29:56.994Z,19.63
2022-08-18T04:31:09.103Z,20.30
2022-08-18T04:32:13.627Z,20.25
2022-08-18T04:33:17.861Z,19.08
2022-08-18T04:34:23.020Z,21.85
2022-08-18T04:35:29.341Z,22.25
2022-08-18T04:36:34.768Z,22.50
2022-08-18T04:37:50.123Z,22.67
2022-08-18T04:38:54.245Z,21.88
2022-08-18T04:40:01.115Z,21.65
2022-08-18T04:41:04.699Z,21.00
2022-08-18T04:42:09.148Z,20.60
2022-08-18T04:43:15.480Z,20.58
2022-08-18T04:44:20.487Z,20.92
2022-08-18T04:45:25.208Z,22.25
2022-08-18T04:46:30.668Z,20.95
2022-08-18T04:47:34.826Z,21.20
2022-08-18T04:48:40.889Z,21.23
2022-08-18T04:49:44.857Z,20.58
2022-08-18T04:50:49.272Z,19.27
2022-08-18T04:52:34.496Z,20.98
2022-08-18T04:53:47.208Z,22.60
2022-08-18T04:54:51.591Z,21.48
2022-08-18T04:55:56.370Z,22.67
2022-08-18T04:57:00.751Z,22.27
2022-08-18T04:58:04.998Z,21.50
2022-08-18T04:59:12.847Z,22.48
2022-08-18T05:00:17.450Z,22.40
2022-08-18T05:01:23.966Z,21.55
2022-08-18T05:02:28.326Z,21.40
2022-08-18T05:03:31.610Z,21.52
2022-08-18T05:04:36.793Z,20.13
2022-08-18T05:05:40.203Z,21.63
2022-08-18T05:06:45.809Z,21.80
2022-08-18T05:07:49.331Z,22.45
2022-08-18T05:08:54.628Z,20.13
2022-08-18T05:09:58.030Z,20.05
2022-08-18T05:11:04.316Z,19.40
2022-08-18T05:12:09.141Z,20.05
2022-08-18T05:13:16.921Z,20.40
2022-08-18T05:14:20.550Z,20.23
2022-08-18T05:15:28.502Z,19.75
2022-08-18T05:16:36.181Z,21.08
2022-08-18T05:17:50.855Z,20.10
2022-08-18T05:18:55.034Z,22.13
2022-08-18T05:20:01.898Z,20.27
2022-08-18T05:21:14.493Z,23.50
2022-08-18T05:22:28.734Z,23.73
2022-08-18T05:23:36.447Z,22.73
2022-08-18T05:24:40.141Z,22.38
2022-08-18T05:25:44.390Z,22.88
2022-08-18T05:26:49.043Z,22.10
2022-08-18T05:27:56.348Z,21.55
2022-08-18T05:29:17.798Z,21.15
2022-08-18T05:30:23.621Z,20.10
2022-08-18T05:31:29.918Z,20.50
2022-08-18T05:32:46.866Z,20.60
2022-08-18T05:33:55.989Z,18.77
2022-08-18T05:34:59.978Z,19.48
2022-08-18T05:36:06.239Z,18.70
2022-08-18T05:37:20.708Z,17.63
2022-08-18T05:38:35.017Z,16.27
2022-08-18T05:39:44.602Z,14.50
2022-08-18T05:41:01.021Z,14.73
2022-08-18T05:42:20.327Z,12.30
2022-08-18T05:43:24.868Z,13.13
2022-08-18T05:44:29.852Z,13.20
2022-08-18T05:45:35.051Z,11.87
2022-08-18T05:46:45.716Z,11.93
2022-08-18T05:47:50.923Z,12.83
2022-08-18T05:48:55.568Z,10.90
2022-08-18T05:50:04.940Z,11.80
2022-08-18T05:51:19.039Z,10.93
2022-08-18T05:52:26.373Z,11.10
2022-08-18T05:53:44.730Z,11.37
2022-08-18T05:55:08.366Z,10.43
2022-08-18T05:56:31.019Z,9.60
2022-08-18T05:57:40.871Z,11.00
2022-08-18T05:58:48.811Z,10.87
2022-08-18T05:59:54.516Z,9.73
2022-08-18T06:01:01.812Z,10.40
2022-08-18T06:02:10.488Z,10.03
2022-08-18T06:03:21.064Z,9.77
2022-08-18T06:04:35.096Z,10.33
2022-08-18T06:05:45.033Z,9.60
2022-08-18T06:06:51.352Z,10.07
2022-08-18T06:07:57.550Z,9.30
2022-08-18T06:09:06.273Z,10.00
2022-08-18T06:10:11.938Z,9.47
2022-08-18T06:11:17.415Z,9.67
2022-08-18T06:12:29.952Z,10.40
2022-08-18T06:13:39.511Z,9.83
2022-08-18T06:14:44.252Z,9.90
2022-08-18T06:15:54.627Z,9.80
2022-08-18T06:17:03.798Z,9.57
2022-08-18T06:18:21.358Z,10.17
2022-08-18T06:19:36.541Z,9.53
2022-08-18T06:20:50.890Z,9.20
2022-08-18T06:22:02.768Z,9.50
2022-08-18T06:23:18.970Z,9.57
2022-08-18T06:24:30.104Z,9.30
2022-08-18T06:25:38.560Z,8.87
2022-08-18T06:26:49.017Z,9.30
2022-08-18T06:27:56.866Z,9.50
2022-08-18T06:29:10.080Z,9.33
2022-08-18T06:30:17.958Z,9.17
2022-08-18T06:31:29.484Z,8.63
2022-08-18T06:32:49.198Z,7.93
2022-08-18T06:34:06.022Z,8.97
2022-08-18T06:35:21.192Z,8.30
2022-08-18T06:36:33.447Z,8.93
2022-08-18T06:38:12.829Z,9.10
2022-08-18T06:39:22.671Z,8.17
2022-08-18T06:40:25.854Z,8.27
2022-08-18T06:41:41.618Z,8.20
2022-08-18T06:42:48.789Z,8.37
2022-08-18T06:44:00.490Z,8.27
2022-08-18T06:45:08.661Z,8.93
2022-08-18T06:46:18.667Z,8.43
2022-08-18T06:47:30.379Z,8.60
2022-08-18T06:48:40.509Z,8.37
2022-08-18T06:49:51.590Z,8.20
2022-08-18T06:51:01.120Z,8.13
2022-08-18T06:52:23.784Z,8.60
2022-08-18T06:53:51.849Z,8.70
2022-08-18T06:54:58.248Z,7.87
2022-08-18T06:56:26.224Z,7.83
2022-08-18T06:57:34.901Z,7.47
2022-08-18T06:58:38.250Z,8.17
2022-08-18T06:59:42.652Z,7.13
2022-08-18T07:00:56.685Z,7.50
2022-08-18T07:02:03.110Z,7.57
2022-08-18T07:03:08.319Z,7.40
2022-08-18T07:04:32.616Z,7.70
2022-08-18T07:05:39.299Z,7.43
2022-08-18T07:06:42.359Z,6.70
2022-08-18T07:07:46.896Z,7.10
2022-08-18T07:08:51.744Z,7.23
2022-08-18T07:09:56.995Z,6.90
2022-08-18T07:11:14.346Z,6.87
2022-08-18T07:12:26.717Z,6.40
2022-08-18T07:13:40.680Z,7.07
2022-08-18T07:14:49.198Z,6.73
2022-08-18T07:15:55.393Z,6.43
2022-08-18T07:17:09.019Z,6.77
2022-08-18T07:18:14.942Z,6.87
2022-08-18T07:19:20.968Z,6.57
2022-08-18T07:20:26.711Z,7.10
2022-08-18T07:21:34.284Z,6.87
2022-08-18T07:22:56.316Z,6.90
2022-08-18T07:24:23.247Z,7.37
2022-08-18T07:25:28.069Z,6.83
2022-08-18T07:26:47.871Z,7.07
2022-08-18T07:27:56.514Z,6.07
2022-08-18T07:29:14.892Z,6.53
2022-08-18T07:30:30.719Z,6.53
2022-08-18T07:31:39.756Z,6.23
2022-08-18T07:32:47.461Z,6.90
2022-08-18T07:33:56.483Z,6.00
2022-08-18T07:35:03.830Z,7.17
2022-08-18T07:36:10.109Z,6.73
2022-08-18T07:37:22.845Z,6.30
2022-08-18T07:38:42.523Z,6.20
2022-08-18T07:39:51.241Z,6.60
2022-08-18T07:40:58.454Z,7.10
2022-08-18T07:42:04.736Z,6.20
2022-08-18T07:43:16.778Z,5.90
2022-08-18T07:44:24.836Z,6.55
2022-08-18T07:45:51.609Z,6.13
2022-08-18T07:46:59.889Z,6.77
2022-08-18T07:48:27.374Z,5.90
2022-08-18T07:49:36.080Z,6.00
2022-08-18T07:50:58.238Z,6.30
2022-08-18T07:52:16.383Z,6.20
2022-08-18T07:53:42.084Z,6.75
2022-08-18T07:54:54.606Z,6.78
2022-08-18T07:56:03.352Z,6.18
2022-08-18T07:57:19.632Z,6.82
2022-08-18T07:58:28.922Z,6.28
2022-08-18T07:59:38.099Z,6.13
2022-08-18T08:01:05.234Z,6.97
2022-08-18T08:02:22.546Z,5.75
2022-08-18T08:03:32.498Z,6.18
2022-08-18T08:04:41.135Z,7.05
2022-08-18T08:05:51.765Z,6.20
2022-08-18T08:07:23.526Z,6.13
2022-08-18T08:08:32.608Z,7.68
2022-08-18T08:09:51.750Z,6.90
2022-08-18T08:11:09.508Z,6.47
2022-08-18T08:12:18.617Z,6.28
2022-08-18T08:13:51.326Z,6.57
2022-08-18T08:14:56.123Z,6.22
2022-08-18T08:16:04.847Z,6.40
2022-08-18T08:17:17.587Z,6.25
2022-08-18T08:18:31.758Z,6.63
2022-08-18T08:20:08.695Z,6.07
2022-08-18T08:21:17.807Z,6.45
2022-08-18T08:22:24.826Z,6.30
2022-08-18T08:23:32.435Z,6.00
2022-08-18T08:24:43.091Z,6.20
2022-08-18T08:25:57.200Z,6.90
2022-08-18T08:27:07.034Z,6.28
2022-08-18T08:28:22.113Z,6.50
2022-08-18T08:29:38.282Z,5.90
2022-08-18T08:30:48.577Z,5.93
2022-08-18T08:31:58.579Z,7.13
2022-08-18T08:33:10.076Z,6.35
2022-08-18T08:34:17.593Z,6.75
2022-08-18T08:35:48.561Z,6.10
2022-08-18T08:36:50.269Z,6.20
2022-08-18T08:38:08.230Z,6.20
2022-08-18T08:39:27.002Z,6.75
2022-08-18T08:40:38.488Z,6.35
2022-08-18T08:41:53.416Z,6.57
2022-08-18T08:43:20.708Z,6.68
2022-08-18T08:44:30.962Z,6.32
2022-08-18T08:45:38.267Z,6.35
2022-08-18T08:46:46.749Z,6.32
2022-08-18T08:48:09.412Z,6.40
2022-08-18T08:49:23.461Z,6.43
2022-08-18T08:50:29.901Z,6.07
2022-08-18T08:51:37.953Z,6.50
2022-08-18T08:52:45.495Z,7.07
2022-08-18T08:53:54.025Z,6.80
2022-08-18T08:55:02.914Z,6.85
2022-08-18T08:56:13.007Z,6.05
2022-08-18T08:57:18.248Z,6.45
2022-08-18T08:58:31.578Z,6.50
2022-08-18T08:59:39.808Z,5.93
2022-08-18T09:00:44.760Z,6.18
2022-08-18T09:01:55.444Z,6.38
2022-08-18T09:03:13.633Z,6.63
2022-08-18T09:04:24.218Z,6.65
2022-08-18T09:05:30.711Z,7.03
2022-08-18T09:06:44.419Z,6.78
2022-08-18T09:08:03.680Z,6.25
2022-08-18T09:09:19.368Z,6.60
2022-08-18T09:10:44.098Z,6.45
2022-08-18T09:12:12.170Z,6.38
2022-08-18T09:13:35.169Z,6.68
2022-08-18T09:15:11.568Z,6.63
2022-08-18T09:16:22.758Z,6.18
2022-08-18T09:17:50.897Z,5.95
2022-08-18T09:19:26.401Z,6.50
2022-08-18T09:20:48.607Z,6.75
2022-08-18T09:21:59.510Z,6.18
2022-08-18T09:23:06.749Z,6.82
2022-08-18T09:24:23.161Z,6.80
2022-08-18T09:25:48.133Z,7.18
2022-08-18T09:27:16.532Z,6.88
2022-08-18T09:28:21.767Z,6.43
2022-08-18T09:29:29.482Z,6.13
2022-08-18T09:30:47.445Z,7.20
2022-08-18T09:32:32.971Z,6.95
2022-08-18T09:33:57.613Z,6.20
2022-08-18T09:35:44.898Z,6.45
2022-08-18T09:37:03.852Z,5.82
2022-08-18T09:38:29.963Z,6.88
2022-08-18T09:39:55.114Z,6.20
2022-08-18T09:41:34.440Z,6.30
2022-08-18T09:44:12.083Z,6.60
2022-08-18T09:46:00.109Z,6.97
2022-08-18T09:47:04.360Z,6.47
2022-08-18T09:48:32.535Z,6.65
2022-08-18T09:49:51.108Z,6.82
2022-08-18T09:50:37.004Z,5.95
2022-08-18T09:51:01.652Z,6.30
2022-08-18T09:52:59.163Z,6.55
2022-08-18T09:54:21.137Z,6.70
2022-08-18T09:56:00.553Z,6.53
2022-08-18T09:57:24.759Z,6.22
2022-08-18T09:59:02.879Z,6.63
2022-08-18T10:00:29.497Z,6.60
2022-08-18T10:01:40.589Z,6.43
2022-08-18T10:03:14.580Z,7.13
2022-08-18T10:04:34.391Z,6.72
2022-08-18T10:05:37.582Z,7.25
2022-08-18T10:06:42.982Z,6.30
2022-08-18T10:07:53.753Z,6.30
2022-08-18T10:09:36.417Z,6.57
2022-08-18T10:11:00.464Z,6.90
2022-08-18T10:12:20.791Z,7.13
2022-08-18T10:13:29.900Z,6.47
2022-08-18T10:15:04.432Z,6.65
2022-08-18T10:16:17.310Z,7.28
2022-08-18T10:17:32.870Z,6.65
2022-08-18T10:18:53.037Z,6.53
2022-08-18T10:20:01.278Z,6.15
2022-08-18T10:21:12.909Z,6.95
2022-08-18T10:22:37.030Z,6.80
2022-08-18T10:24:14.704Z,6.75
2022-08-18T10:25:39.740Z,7.10
2022-08-18T10:27:11.069Z,6.80
2022-08-18T10:28:50.171Z,7.15
2022-08-18T10:29:56.398Z,7.47
2022-08-18T10:31:10.115Z,7.65
2022-08-18T10:32:38.570Z,6.68
2022-08-18T10:34:16.895Z,7.18
2022-08-18T10:35:57.678Z,6.68
2022-08-18T10:37:06.355Z,7.00
2022-08-18T10:38:13.239Z,7.15
2022-08-18T10:39:23.554Z,6.70
2022-08-18T10:40:27.203Z,6.82
2022-08-18T10:41:33.419Z,6.85
2022-08-18T10:42:42.108Z,7.55
2022-08-18T10:43:55.804Z,7.45
2022-08-18T10:45:09.651Z,6.78
2022-08-18T10:46:24.660Z,7.60
2022-08-18T10:47:33.462Z,7.10
2022-08-18T10:48:40.254Z,7.53
2022-08-18T10:49:50.640Z,6.90
2022-08-18T10:50:58.878Z,7.53
2022-08-18T10:52:18.096Z,8.52
2022-08-18T10:53:44.466Z,7.28
2022-08-18T10:55:23.271Z,6.93
2022-08-18T10:56:33.769Z,6.70
2022-08-18T10:57:47.063Z,6.90
2022-08-18T10:59:02.163Z,6.50
2022-08-18T11:00:10.821Z,6.97
2022-08-18T11:01:32.919Z,7.03
2022-08-18T11:03:39.913Z,6.35
2022-08-18T11:04:38.792Z,6.50
2022-08-18T11:05:43.157Z,6.57
2022-08-18T11:06:50.819Z,6.93
2022-08-18T11:08:00.811Z,6.47
2022-08-18T11:09:04.150Z,7.10
2022-08-18T11:10:58.078Z,7.43
2022-08-18T11:11:52.997Z,7.03
2022-08-18T11:13:09.831Z,7.78
2022-08-18T11:14:35.793Z,7.10
2022-08-18T11:15:50.614Z,7.10
2022-08-18T11:17:02.668Z,7.20
2022-08-18T11:18:18.620Z,6.90
2022-08-18T11:19:25.072Z,8.15
2022-08-18T11:20:31.679Z,6.60
2022-08-18T11:21:41.962Z,6.72
2022-08-18T11:22:55.527Z,7.28
2022-08-18T11:24:07.232Z,7.18
2022-08-18T11:25:24.081Z,6.63
2022-08-18T11:26:31.381Z,7.00
2022-08-18T11:27:36.982Z,7.45
2022-08-18T11:28:45.349Z,8.68
2022-08-18T11:29:50.158Z,6.40
2022-08-18T11:30:56.377Z,6.13
2022-08-18T11:32:10.994Z,7.22
2022-08-18T11:34:45.540Z,7.13
2022-08-18T11:35:58.779Z,6.30
2022-08-18T11:37:03.997Z,6.57
2022-08-18T11:38:23.285Z,7.43
2022-08-18T11:39:37.612Z,7.32
2022-08-18T11:42:15.944Z,7.05
2022-08-18T11:43:29.752Z,7.07
2022-08-18T11:44:42.483Z,6.25
2022-08-18T11:45:54.330Z,7.60
2022-08-18T11:47:14.770Z,7.13
2022-08-18T11:48:21.487Z,6.70
2022-08-18T11:49:34.079Z,6.90
2022-08-18T11:50:54.322Z,7.00
2022-08-18T11:52:02.356Z,6.32
2022-08-18T11:53:19.129Z,6.70
2022-08-18T11:54:50.666Z,6.47
2022-08-18T11:56:13.529Z,6.50
2022-08-18T11:57:46.527Z,6.43
2022-08-18T11:58:55.520Z,6.25
2022-08-18T12:01:41.925Z,7.00
2022-08-18T12:02:47.135Z,6.40
2022-08-18T12:03:51.524Z,6.70
2022-08-18T12:05:03.062Z,5.90
2022-08-18T12:06:20.303Z,6.85
2022-08-18T12:07:30.797Z,6.05
2022-08-18T12:10:26.260Z,6.63
2022-08-18T12:11:34.418Z,6.75
2022-08-18T12:12:46.707Z,6.55
2022-08-18T12:14:31.245Z,6.70
2022-08-18T12:15:46.689Z,6.45
2022-08-18T12:16:53.942Z,5.97
2022-08-18T12:17:58.888Z,6.80
2022-08-18T12:19:05.415Z,6.10
2022-08-18T12:20:16.430Z,5.82
2022-08-18T12:21:19.469Z,5.72
2022-08-18T12:22:28.081Z,6.40
2022-08-18T12:23:38.827Z,5.88
2022-08-18T12:24:54.962Z,5.97
2022-08-18T12:25:59.590Z,5.80
2022-08-18T12:28:28.960Z,5.75
2022-08-18T12:29:43.387Z,6.50
2022-08-18T12:30:48.518Z,5.80
2022-08-18T12:32:00.677Z,6.10
2022-08-18T12:33:12.059Z,6.25
2022-08-18T12:34:17.991Z,6.22
2022-08-18T12:35:28.382Z,6.32
2022-08-18T12:36:32.784Z,6.65
2022-08-18T12:39:02.770Z,5.95
2022-08-18T12:40:10.369Z,6.30
2022-08-18T12:41:18.611Z,6.13
2022-08-18T12:42:27.397Z,5.85
2022-08-18T12:43:32.116Z,5.53
2022-08-18T12:44:35.431Z,6.18
2022-08-18T12:45:40.531Z,5.90
2022-08-18T12:46:58.265Z,6.45
2022-08-18T12:49:29.668Z,6.00
2022-08-18T12:50:36.151Z,5.68
2022-08-18T12:51:50.335Z,6.00
2022-08-18T12:52:54.431Z,5.78
2022-08-18T12:54:00.432Z,5.88
2022-08-18T12:55:05.454Z,6.70
2022-08-18T12:56:13.737Z,7.13
2022-08-18T12:58:47.740Z,5.55
2022-08-18T12:59:52.436Z,5.55
2022-08-18T13:01:00.898Z,6.13
2022-08-18T13:02:07.586Z,6.93
2022-08-18T13:03:13.813Z,6.00
2022-08-18T13:04:18.514Z,6.20
2022-08-18T13:05:27.603Z,5.97
2022-08-18T13:06:34.222Z,5.43
2022-08-18T13:07:38.708Z,5.18
2022-08-18T13:08:48.044Z,6.00
2022-08-18T13:09:54.658Z,5.65
2022-08-18T13:11:15.194Z,5.57
2022-08-18T13:12:27.377Z,5.75
2022-08-18T13:13:31.238Z,5.85
2022-08-18T13:14:35.941Z,5.85
2022-08-18T13:15:39.672Z,6.05
2022-08-18T13:16:58.750Z,5.75
2022-08-18T13:18:03.084Z,5.60
2022-08-18T13:19:36.606Z,6.68
2022-08-18T13:20:41.248Z,6.32
2022-08-18T13:21:49.564Z,6.07
2022-08-18T13:22:52.800Z,6.63
2022-08-18T13:23:58.028Z,6.10
2022-08-18T13:25:05.470Z,6.32
2022-08-18T13:26:11.294Z,6.90
2022-08-18T13:27:18.596Z,6.28
2022-08-18T13:28:36.230Z,6.00
2022-08-18T13:29:58.627Z,5.80
2022-08-18T13:31:03.461Z,5.65
2022-08-18T13:32:09.771Z,5.97
2022-08-18T13:33:35.171Z,5.82
2022-08-18T13:34:41.118Z,6.22
2022-08-18T13:35:54.150Z,5.97
2022-08-18T13:36:58.660Z,5.95
2022-08-18T13:38:06.555Z,5.97
2022-08-18T13:39:22.512Z,6.05
2022-08-18T13:40:29.488Z,6.03
2022-08-18T13:41:33.556Z,5.90
2022-08-18T13:42:50.815Z,6.07
2022-08-18T13:43:54.436Z,6.13
2022-08-18T13:45:25.027Z,6.40
2022-08-18T13:46:30.001Z,5.88
2022-08-18T13:47:38.321Z,5.57
2022-08-18T13:48:42.909Z,5.60
2022-08-18T13:49:58.165Z,6.00
2022-08-18T13:51:05.625Z,5.55
2022-08-18T13:52:33.174Z,6.40
2022-08-18T13:53:50.395Z,5.85
2022-08-18T13:54:54.797Z,5.50
2022-08-18T13:56:00.183Z,6.20
2022-08-18T13:57:03.649Z,5.60
2022-08-18T13:58:17.582Z,5.63
2022-08-18T13:59:27.322Z,5.80
2022-08-18T14:00:31.419Z,6.18
2022-08-18T14:01:44.491Z,5.60
2022-08-18T14:02:57.434Z,5.80
2022-08-18T14:04:01.471Z,5.35
2022-08-18T14:05:07.730Z,5.90
2022-08-18T14:06:13.330Z,5.72
2022-08-18T14:07:27.380Z,5.20
2022-08-18T14:08:33.763Z,5.28
2022-08-18T14:09:38.566Z,5.63
2022-08-18T14:10:41.790Z,5.82
2022-08-18T14:11:51.105Z,5.22
2022-08-18T14:12:57.751Z,5.20
2022-08-18T14:14:01.817Z,5.65
2022-08-18T14:15:08.909Z,5.50
2022-08-18T14:16:18.611Z,5.45
2022-08-18T14:17:24.580Z,5.30
2022-08-18T14:18:31.174Z,5.70
2022-08-18T14:19:52.502Z,5.22
2022-08-18T14:21:14.858Z,5.07
2022-08-18T14:22:38.448Z,5.63
2022-08-18T14:24:02.944Z,5.40
2022-08-18T14:25:25.266Z,5.68
2022-08-18T14:26:50.031Z,5.70
2022-08-18T14:27:56.958Z,5.57
2022-08-18T14:29:01.391Z,5.75
2022-08-18T14:30:13.804Z,5.35
2022-08-18T14:31:20.787Z,5.82
2022-08-18T14:32:30.054Z,5.05
2022-08-18T14:33:51.659Z,5.68
2022-08-18T14:35:00.535Z,5.78
2022-08-18T14:36:09.489Z,5.50
2022-08-18T14:37:13.342Z,5.13
2022-08-18T14:38:19.099Z,6.22
2022-08-18T14:39:22.158Z,5.53
2022-08-18T14:40:28.053Z,5.72
2022-08-18T14:41:36.246Z,5.38
2022-08-18T14:42:54.063Z,5.40
2022-08-18T14:44:12.290Z,5.82
2022-08-18T14:45:27.720Z,5.57
2022-08-18T14:46:38.388Z,5.20
2022-08-18T14:47:44.577Z,5.75
2022-08-18T14:48:48.801Z,5.72
2022-08-18T14:49:51.928Z,5.70
2022-08-18T14:50:58.948Z,6.07
2022-08-18T14:52:03.675Z,5.38
2022-08-18T14:53:15.145Z,5.57
2022-08-18T14:54:20.033Z,5.68
2022-08-18T14:55:24.434Z,6.20
2022-08-18T14:56:29.857Z,6.47
2022-08-18T14:57:37.858Z,6.13
2022-08-18T14:58:41.230Z,5.60
2022-08-18T14:59:46.954Z,5.78
2022-08-18T15:00:54.228Z,6.03
2022-08-18T15:02:00.909Z,6.03
2022-08-18T15:03:07.716Z,5.35
2022-08-18T15:04:18.327Z,6.40
2022-08-18T15:05:24.367Z,5.60
2022-08-18T15:06:27.889Z,5.65
2022-08-18T15:07:32.719Z,6.05
2022-08-18T15:08:38.936Z,6.45
2022-08-18T15:09:47.239Z,5.88
2022-08-18T15:10:53.007Z,6.15
2022-08-18T15:11:56.766Z,5.72
2022-08-18T15:13:01.983Z,5.97
2022-08-18T15:14:05.300Z,5.78
2022-08-18T15:15:17.745Z,5.82
2022-08-18T15:16:22.721Z,5.90
2022-08-18T15:17:38.290Z,5.28
2022-08-18T15:18:42.742Z,5.28
2022-08-18T15:19:58.517Z,5.93
2022-08-18T15:21:35.047Z,5.90
2022-08-18T15:23:01.132Z,5.75
2022-08-18T15:24:26.268Z,5.53
2022-08-18T15:25:51.220Z,5.50
2022-08-18T15:26:58.054Z,5.82
2022-08-18T15:28:07.685Z,6.15
2022-08-18T15:29:27.837Z,5.63
2022-08-18T15:30:34.014Z,6.03
2022-08-18T15:31:57.720Z,5.40
2022-08-18T15:33:03.635Z,5.47
2022-08-18T15:34:06.831Z,5.47
2022-08-18T15:35:17.737Z,5.80
2022-08-18T15:36:29.186Z,6.03
2022-08-18T15:37:35.590Z,5.75
2022-08-18T15:38:40.592Z,6.30
2022-08-18T15:39:44.788Z,5.65
2022-08-18T15:40:52.946Z,5.70
2022-08-18T15:42:04.405Z,5.97